sensor_id;sensor_type;location;lat;lon;timestamp;pressure;altitude;pressure_sealevel;temperature;humidity
4814;BME280;15375;48.540;9.268;2023-04-15T00:01:24;96353.66;;;3.43;100.00
4814;BME280;15375;48.540;9.268;2023-04-15T00:03:50;96351.38;;;3.42;100.00
4814;BME280;15375;48.540;9.268;2023-04-15T00:06:20;96358.69;;;3.38;100.00
4814;BME280;15375;48.540;9.268;2023-04-15T00:08:46;96344.19;;;3.21;100.00
4814;BME280;15375;48.540;9.268;2023-04-15T00:11:12;96342.72;;;3.02;100.00
4814;BME280;15375;48.540;9.268;2023-04-15T00:13:37;96374.94;;;3.27;100.00
4814;BME280;15375;48.540;9.268;2023-04-15T00:16:04;96378.78;;;3.30;100.00
4814;BME280;15375;48.540;9.268;2023-04-15T00:18:30;96357.25;;;3.22;100.00
4814;BME280;15375;48.540;9.268;2023-04-15T00:20:56;96370.72;;;3.26;100.00
4814;BME280;15375;48.540;9.268;2023-04-15T00:23:21;96323.94;;;2.92;100.00
4814;BME280;15375;48.540;9.268;2023-04-15T00:25:47;96329.66;;;3.01;100.00
4814;BME280;15375;48.540;9.268;2023-04-15T00:28:12;96369.53;;;3.31;100.00
4814;BME280;15375;48.540;9.268;2023-04-15T00:30:38;96368.78;;;3.23;100.00
4814;BME280;15375;48.540;9.268;2023-04-15T00:33:03;96348.91;;;2.99;100.00
4814;BME280;15375;48.540;9.268;2023-04-15T00:35:29;96350.38;;;3.07;100.00
4814;BME280;15375;48.540;9.268;2023-04-15T00:37:57;96369.97;;;3.15;100.00
4814;BME280;15375;48.540;9.268;2023-04-15T00:40:23;96371.16;;;3.10;100.00
4814;BME280;15375;48.540;9.268;2023-04-15T00:42:49;96373.59;;;2.84;100.00
4814;BME280;15375;48.540;9.268;2023-04-15T00:45:14;96377.03;;;2.88;100.00
4814;BME280;15375;48.540;9.268;2023-04-15T00:47:43;96370.84;;;2.91;100.00
4814;BME280;15375;48.540;9.268;2023-04-15T00:50:09;96379.28;;;3.00;100.00
4814;BME280;15375;48.540;9.268;2023-04-15T00:52:35;96375.06;;;2.95;100.00
4814;BME280;15375;48.540;9.268;2023-04-15T00:55:01;96385.81;;;3.02;100.00
4814;BME280;15375;48.540;9.268;2023-04-15T00:57:28;96380.50;;;2.85;100.00
4814;BME280;15375;48.540;9.268;2023-04-15T00:59:55;96388.22;;;2.79;100.00
4814;BME280;15375;48.540;9.268;2023-04-15T01:02:21;96388.22;;;2.76;100.00
4814;BME280;15375;48.540;9.268;2023-04-15T01:04:47;96377.50;;;2.58;100.00
4814;BME280;15375;48.540;9.268;2023-04-15T01:07:13;96389.41;;;2.64;100.00
4814;BME280;15375;48.540;9.268;2023-04-15T01:09:39;96392.88;;;2.61;100.00
4814;BME280;15375;48.540;9.268;2023-04-15T01:12:06;96370.22;;;2.51;100.00
4814;BME280;15375;48.540;9.268;2023-04-15T01:14:33;96387.47;;;2.72;100.00
4814;BME280;15375;48.540;9.268;2023-04-15T01:16:58;96359.81;;;2.57;100.00
4814;BME280;15375;48.540;9.268;2023-04-15T01:19:24;96390.91;;;2.76;100.00
4814;BME280;15375;48.540;9.268;2023-04-15T01:21:50;96360.56;;;2.61;100.00
4814;BME280;15375;48.540;9.268;2023-04-15T01:24:17;96391.28;;;2.81;100.00
4814;BME280;15375;48.540;9.268;2023-04-15T01:26:44;96389.38;;;2.78;100.00
4814;BME280;15375;48.540;9.268;2023-04-15T01:29:09;96374.41;;;2.67;100.00
4814;BME280;15375;48.540;9.268;2023-04-15T01:31:35;96354.06;;;2.48;100.00
4814;BME280;15375;48.540;9.268;2023-04-15T01:34:00;96342.94;;;2.39;100.00
4814;BME280;15375;48.540;9.268;2023-04-15T01:36:26;96359.06;;;2.46;100.00
4814;BME280;15375;48.540;9.268;2023-04-15T01:38:52;96375.19;;;2.53;100.00
4814;BME280;15375;48.540;9.268;2023-04-15T01:41:24;96336.06;;;2.20;100.00
4814;BME280;15375;48.540;9.268;2023-04-15T01:43:49;96359.88;;;2.36;100.00
4814;BME280;15375;48.540;9.268;2023-04-15T01:46:15;96390.19;;;2.47;100.00
4814;BME280;15375;48.540;9.268;2023-04-15T01:48:41;96372.94;;;2.34;100.00
4814;BME280;15375;48.540;9.268;2023-04-15T01:51:06;96367.94;;;2.25;100.00
4814;BME280;15375;48.540;9.268;2023-04-15T01:53:32;96364.47;;;2.14;100.00
4814;BME280;15375;48.540;9.268;2023-04-15T01:55:58;96381.78;;;2.20;100.00
4814;BME280;15375;48.540;9.268;2023-04-15T01:58:24;96359.88;;;2.08;100.00
4814;BME280;15375;48.540;9.268;2023-04-15T02:00:49;96359.88;;;2.08;100.00
4814;BME280;15375;48.540;9.268;2023-04-15T02:03:16;96364.09;;;2.12;100.00
4814;BME280;15375;48.540;9.268;2023-04-15T02:05:42;96382.94;;;2.23;100.00
4814;BME280;15375;48.540;9.268;2023-04-15T02:08:08;96363.34;;;2.08;100.00
4814;BME280;15375;48.540;9.268;2023-04-15T02:10:33;96346.06;;;1.99;100.00
4814;BME280;15375;48.540;9.268;2023-04-15T02:12:59;96366.78;;;2.12;100.00
4814;BME280;15375;48.540;9.268;2023-04-15T02:15:24;96385.22;;;2.24;100.00
4814;BME280;15375;48.540;9.268;2023-04-15T02:17:50;96342.59;;;1.94;100.00
4814;BME280;15375;48.540;9.268;2023-04-15T02:20:17;96353.34;;;2.02;100.00
4814;BME280;15375;48.540;9.268;2023-04-15T02:22:43;96366.78;;;2.02;100.00
4814;BME280;15375;48.540;9.268;2023-04-15T02:25:08;96343.00;;;1.93;100.00
4814;BME280;15375;48.540;9.268;2023-04-15T02:27:34;96365.28;;;2.08;100.00
4814;BME280;15375;48.540;9.268;2023-04-15T02:30:00;96373.72;;;2.06;100.00
4814;BME280;15375;48.540;9.268;2023-04-15T02:32:25;96356.44;;;1.89;100.00
4814;BME280;15375;48.540;9.268;2023-04-15T02:34:51;96344.50;;;1.76;100.00
4814;BME280;15375;48.540;9.268;2023-04-15T02:37:16;96349.91;;;1.73;100.00
4814;BME280;15375;48.540;9.268;2023-04-15T02:39:43;96322.25;;;1.58;100.00
4814;BME280;15375;48.540;9.268;2023-04-15T02:42:08;96369.13;;;1.85;100.00
4814;BME280;15375;48.540;9.268;2023-04-15T02:44:34;96346.06;;;1.74;100.00
4814;BME280;15375;48.540;9.268;2023-04-15T02:47:00;96310.34;;;1.52;100.00
4814;BME280;15375;48.540;9.268;2023-04-15T02:49:26;96305.72;;;1.42;100.00
4814;BME280;15375;48.540;9.268;2023-04-15T02:51:53;96369.13;;;1.92;100.00
4814;BME280;15375;48.540;9.268;2023-04-15T02:54:20;96333.00;;;1.55;100.00
4814;BME280;15375;48.540;9.268;2023-04-15T02:56:50;96344.91;;;1.61;100.00
4814;BME280;15375;48.540;9.268;2023-04-15T02:59:19;96336.47;;;1.55;100.00
4814;BME280;15375;48.540;9.268;2023-04-15T03:01:44;96344.91;;;1.57;100.00
4814;BME280;15375;48.540;9.268;2023-04-15T03:04:10;96367.19;;;1.72;100.00
4814;BME280;15375;48.540;9.268;2023-04-15T03:06:35;96361.81;;;1.65;100.00
4814;BME280;15375;48.540;9.268;2023-04-15T03:09:01;96375.25;;;1.82;100.00
4814;BME280;15375;48.540;9.268;2023-04-15T03:11:28;96352.97;;;1.68;100.00
4814;BME280;15375;48.540;9.268;2023-04-15T03:13:53;96336.47;;;1.55;100.00
4814;BME280;15375;48.540;9.268;2023-04-15T03:16:19;96341.06;;;1.58;100.00
4814;BME280;15375;48.540;9.268;2023-04-15T03:18:45;96351.41;;;1.56;100.00
4814;BME280;15375;48.540;9.268;2023-04-15T03:21:10;96356.44;;;1.75;100.00
4814;BME280;15375;48.540;9.268;2023-04-15T03:23:35;96360.66;;;1.69;100.00
4814;BME280;15375;48.540;9.268;2023-04-15T03:26:01;96354.50;;;1.48;100.00
4814;BME280;15375;48.540;9.268;2023-04-15T03:28:27;96347.19;;;1.31;100.00
4814;BME280;15375;48.540;9.268;2023-04-15T03:30:53;96357.53;;;1.39;100.00
4814;BME280;15375;48.540;9.268;2023-04-15T03:33:19;96365.22;;;1.44;100.00
4814;BME280;15375;48.540;9.268;2023-04-15T03:35:44;96376.75;;;1.55;100.00
4814;BME280;15375;48.540;9.268;2023-04-15T03:38:10;96282.97;;;0.80;100.00
4814;BME280;15375;48.540;9.268;2023-04-15T03:40:35;96365.97;;;1.38;100.00
4814;BME280;15375;48.540;9.268;2023-04-15T03:43:00;96322.19;;;1.16;100.00
4814;BME280;15375;48.540;9.268;2023-04-15T03:45:26;96337.53;;;1.19;100.00
4814;BME280;15375;48.540;9.268;2023-04-15T03:47:51;96345.19;;;1.10;100.00
4814;BME280;15375;48.540;9.268;2023-04-15T03:50:17;96312.13;;;0.85;100.00
4814;BME280;15375;48.540;9.268;2023-04-15T03:52:43;96348.22;;;0.94;100.00
4814;BME280;15375;48.540;9.268;2023-04-15T03:55:08;96370.50;;;1.05;100.00
4814;BME280;15375;48.540;9.268;2023-04-15T03:57:34;96323.22;;;0.83;100.00
4814;BME280;15375;48.540;9.268;2023-04-15T04:00:07;96338.25;;;1.02;100.00
4814;BME280;15375;48.540;9.268;2023-04-15T04:02:36;96369.03;;;1.25;100.00
4814;BME280;15375;48.540;9.268;2023-04-15T04:05:01;96374.41;;;1.36;100.00
4814;BME280;15375;48.540;9.268;2023-04-15T04:07:26;96350.59;;;1.17;100.00
4814;BME280;15375;48.540;9.268;2023-04-15T04:09:52;96364.41;;;1.26;100.00
4814;BME280;15375;48.540;9.268;2023-04-15T04:12:17;96329.47;;;1.12;100.00
4814;BME280;15375;48.540;9.268;2023-04-15T04:14:43;96367.53;;;1.42;100.00
4814;BME280;15375;48.540;9.268;2023-04-15T04:17:08;96371.38;;;1.48;100.00
4814;BME280;15375;48.540;9.268;2023-04-15T04:19:34;96379.44;;;1.55;100.00
4814;BME280;15375;48.540;9.268;2023-04-15T04:21:59;96382.13;;;1.55;100.00
4814;BME280;15375;48.540;9.268;2023-04-15T04:24:25;96364.84;;;1.42;100.00
4814;BME280;15375;48.540;9.268;2023-04-15T04:26:50;96365.59;;;1.46;100.00
4814;BME280;15375;48.540;9.268;2023-04-15T04:29:15;96290.66;;;0.85;100.00
4814;BME280;15375;48.540;9.268;2023-04-15T04:31:41;96352.13;;;1.21;100.00
4814;BME280;15375;48.540;9.268;2023-04-15T04:34:06;96370.97;;;1.32;100.00
4814;BME280;15375;48.540;9.268;2023-04-15T04:36:32;96377.13;;;1.43;100.00
4814;BME280;15375;48.540;9.268;2023-04-15T04:38:57;96345.56;;;1.05;100.00
4814;BME280;15375;48.540;9.268;2023-04-15T04:41:22;96366.72;;;1.20;100.00
4814;BME280;15375;48.540;9.268;2023-04-15T04:43:48;96336.72;;;0.97;100.00
4814;BME280;15375;48.540;9.268;2023-04-15T04:46:13;96382.09;;;1.31;100.00
4814;BME280;15375;48.540;9.268;2023-04-15T04:48:39;96332.88;;;0.98;100.00
4814;BME280;15375;48.540;9.268;2023-04-15T04:51:04;96367.44;;;1.10;100.00
4814;BME280;15375;48.540;9.268;2023-04-15T04:53:30;96362.81;;;1.11;100.00
4814;BME280;15375;48.540;9.268;2023-04-15T04:55:55;96279.09;;;0.59;100.00
4814;BME280;15375;48.540;9.268;2023-04-15T04:58:21;96382.47;;;1.36;100.00
4814;BME280;15375;48.540;9.268;2023-04-15T05:00:46;96387.84;;;1.33;100.00
4814;BME280;15375;48.540;9.268;2023-04-15T05:03:12;96360.94;;;1.22;100.00
4814;BME280;15375;48.540;9.268;2023-04-15T05:05:37;96328.66;;;1.01;100.00
4814;BME280;15375;48.540;9.268;2023-04-15T05:08:05;96299.09;;;0.80;100.00
4814;BME280;15375;48.540;9.268;2023-04-15T05:10:31;96379.78;;;1.36;100.00
4814;BME280;15375;48.540;9.268;2023-04-15T05:12:56;96382.84;;;1.35;100.00
4814;BME280;15375;48.540;9.268;2023-04-15T05:15:22;96367.84;;;1.19;100.00
4814;BME280;15375;48.540;9.268;2023-04-15T05:17:47;96391.72;;;1.49;100.00
4814;BME280;15375;48.540;9.268;2023-04-15T05:20:13;96353.69;;;1.33;100.00
4814;BME280;15375;48.540;9.268;2023-04-15T05:22:38;96400.22;;;2.04;100.00
4814;BME280;15375;48.540;9.268;2023-04-15T05:25:04;96398.94;;;2.97;100.00
4814;BME280;15375;48.540;9.268;2023-04-15T05:27:29;96368.78;;;3.88;100.00
4814;BME280;15375;48.540;9.268;2023-04-15T05:29:54;96361.34;;;4.81;93.76
4814;BME280;15375;48.540;9.268;2023-04-15T05:32:20;96357.59;;;5.93;90.62
4814;BME280;15375;48.540;9.268;2023-04-15T05:34:46;96391.06;;;6.29;79.45
4814;BME280;15375;48.540;9.268;2023-04-15T05:37:11;96380.25;;;5.75;79.46
4814;BME280;15375;48.540;9.268;2023-04-15T05:39:37;96401.91;;;5.45;84.06
4814;BME280;15375;48.540;9.268;2023-04-15T05:42:02;96390.81;;;5.36;85.04
4814;BME280;15375;48.540;9.268;2023-04-15T05:44:30;96380.84;;;5.60;84.16
4814;BME280;15375;48.540;9.268;2023-04-15T05:46:55;96371.13;;;5.66;84.58
4814;BME280;15375;48.540;9.268;2023-04-15T05:49:21;96384.81;;;6.09;82.35
4814;BME280;15375;48.540;9.268;2023-04-15T05:51:46;96384.44;;;7.71;78.09
4814;BME280;15375;48.540;9.268;2023-04-15T05:54:12;96373.41;;;9.32;69.06
4814;BME280;15375;48.540;9.268;2023-04-15T05:56:37;96370.28;;;9.34;61.56
4814;BME280;15375;48.540;9.268;2023-04-15T05:59:03;96390.09;;;9.06;64.54
4814;BME280;15375;48.540;9.268;2023-04-15T06:01:28;96352.38;;;9.61;62.44
4814;BME280;15375;48.540;9.268;2023-04-15T06:03:54;96369.75;;;10.52;59.67
4814;BME280;15375;48.540;9.268;2023-04-15T06:06:20;96323.09;;;11.98;55.81
4814;BME280;15375;48.540;9.268;2023-04-15T06:08:45;96366.41;;;14.08;51.52
4814;BME280;15375;48.540;9.268;2023-04-15T06:11:10;96381.41;;;15.41;46.97
4814;BME280;15375;48.540;9.268;2023-04-15T06:13:36;96377.84;;;15.64;46.04
4814;BME280;15375;48.540;9.268;2023-04-15T06:16:01;96370.19;;;13.60;48.08
4814;BME280;15375;48.540;9.268;2023-04-15T06:18:28;96382.78;;;11.26;55.36
4814;BME280;15375;48.540;9.268;2023-04-15T06:20:53;96385.03;;;10.37;57.98
4814;BME280;15375;48.540;9.268;2023-04-15T06:23:18;96408.22;;;9.66;64.92
4814;BME280;15375;48.540;9.268;2023-04-15T06:25:44;96404.22;;;9.29;65.76
4814;BME280;15375;48.540;9.268;2023-04-15T06:28:09;96407.09;;;8.65;69.59
4814;BME280;15375;48.540;9.268;2023-04-15T06:30:35;96396.91;;;8.20;73.49
4814;BME280;15375;48.540;9.268;2023-04-15T06:33:01;96399.06;;;8.45;70.50
4814;BME280;15375;48.540;9.268;2023-04-15T06:35:29;96397.56;;;8.24;68.59
4814;BME280;15375;48.540;9.268;2023-04-15T06:37:55;96396.50;;;7.86;70.65
4814;BME280;15375;48.540;9.268;2023-04-15T06:40:20;96390.81;;;7.64;73.46
4814;BME280;15375;48.540;9.268;2023-04-15T06:42:47;96404.88;;;7.95;74.01
4814;BME280;15375;48.540;9.268;2023-04-15T06:45:12;96391.09;;;7.50;76.37
4814;BME280;15375;48.540;9.268;2023-04-15T06:47:38;96421.41;;;7.45;77.31
4814;BME280;15375;48.540;9.268;2023-04-15T06:50:04;96442.28;;;6.89;82.25
4814;BME280;15375;48.540;9.268;2023-04-15T06:52:29;96432.50;;;7.35;80.87
4814;BME280;15375;48.540;9.268;2023-04-15T06:54:55;96375.50;;;7.54;79.31
4814;BME280;15375;48.540;9.268;2023-04-15T06:57:21;96424.41;;;8.22;75.40
4814;BME280;15375;48.540;9.268;2023-04-15T06:59:46;96416.16;;;8.74;74.26
4814;BME280;15375;48.540;9.268;2023-04-15T07:02:12;96395.91;;;8.91;73.49
4814;BME280;15375;48.540;9.268;2023-04-15T07:04:38;96385.66;;;8.83;70.66
4814;BME280;15375;48.540;9.268;2023-04-15T07:07:04;96404.00;;;8.79;70.30
4814;BME280;15375;48.540;9.268;2023-04-15T07:09:30;96398.44;;;8.54;71.41
4814;BME280;15375;48.540;9.268;2023-04-15T07:11:56;96418.16;;;8.58;73.90
4814;BME280;15375;48.540;9.268;2023-04-15T07:14:22;96407.47;;;8.34;73.98
4814;BME280;15375;48.540;9.268;2023-04-15T07:16:47;96412.19;;;8.47;73.16
4814;BME280;15375;48.540;9.268;2023-04-15T07:19:12;96417.44;;;8.21;75.14
4814;BME280;15375;48.540;9.268;2023-04-15T07:21:38;96401.44;;;8.27;74.39
4814;BME280;15375;48.540;9.268;2023-04-15T07:24:03;96377.38;;;8.25;74.77
4814;BME280;15375;48.540;9.268;2023-04-15T07:26:29;96384.38;;;8.43;73.42
4814;BME280;15375;48.540;9.268;2023-04-15T07:28:54;96385.03;;;8.47;71.54
4814;BME280;15375;48.540;9.268;2023-04-15T07:31:20;96385.84;;;8.76;71.66
4814;BME280;15375;48.540;9.268;2023-04-15T07:33:46;96400.50;;;9.23;71.12
4814;BME280;15375;48.540;9.268;2023-04-15T07:36:11;96389.50;;;9.81;69.82
4814;BME280;15375;48.540;9.268;2023-04-15T07:38:37;96372.41;;;10.05;66.51
4814;BME280;15375;48.540;9.268;2023-04-15T07:41:03;96379.44;;;10.66;64.86
4814;BME280;15375;48.540;9.268;2023-04-15T07:43:28;96363.94;;;10.63;64.44
4814;BME280;15375;48.540;9.268;2023-04-15T07:45:54;96392.56;;;10.33;65.28
4814;BME280;15375;48.540;9.268;2023-04-15T07:48:19;96370.31;;;10.47;64.44
4814;BME280;15375;48.540;9.268;2023-04-15T07:50:45;96358.28;;;10.57;63.98
4814;BME280;15375;48.540;9.268;2023-04-15T07:53:10;96378.66;;;11.00;63.61
4814;BME280;15375;48.540;9.268;2023-04-15T07:55:36;96353.19;;;10.81;64.32
4814;BME280;15375;48.540;9.268;2023-04-15T07:58:01;96360.69;;;10.89;62.54
4814;BME280;15375;48.540;9.268;2023-04-15T08:00:26;96383.41;;;10.86;65.84
4814;BME280;15375;48.540;9.268;2023-04-15T08:02:52;96386.03;;;11.12;64.02
4814;BME280;15375;48.540;9.268;2023-04-15T08:05:18;96376.63;;;10.57;66.56
4814;BME280;15375;48.540;9.268;2023-04-15T08:07:44;96371.22;;;10.78;65.16
4814;BME280;15375;48.540;9.268;2023-04-15T08:10:09;96365.31;;;10.80;63.47
4814;BME280;15375;48.540;9.268;2023-04-15T08:12:36;96355.84;;;10.72;62.72
4814;BME280;15375;48.540;9.268;2023-04-15T08:15:01;96372.25;;;11.37;61.05
4814;BME280;15375;48.540;9.268;2023-04-15T08:17:27;96385.47;;;11.60;60.19
4814;BME280;15375;48.540;9.268;2023-04-15T08:19:52;96358.66;;;11.46;58.36
4814;BME280;15375;48.540;9.268;2023-04-15T08:22:18;96368.50;;;11.65;58.76
4814;BME280;15375;48.540;9.268;2023-04-15T08:24:43;96346.03;;;12.59;56.56
4814;BME280;15375;48.540;9.268;2023-04-15T08:27:09;96369.47;;;12.87;54.04
4814;BME280;15375;48.540;9.268;2023-04-15T08:29:34;96352.75;;;12.94;55.27
4814;BME280;15375;48.540;9.268;2023-04-15T08:32:00;96337.53;;;12.57;56.15
4814;BME280;15375;48.540;9.268;2023-04-15T08:34:26;96334.41;;;12.09;56.15
4814;BME280;15375;48.540;9.268;2023-04-15T08:36:51;96358.34;;;12.45;54.89
4814;BME280;15375;48.540;9.268;2023-04-15T08:39:17;96361.34;;;11.89;55.93
4814;BME280;15375;48.540;9.268;2023-04-15T08:41:50;96398.19;;;12.15;57.47
4814;BME280;15375;48.540;9.268;2023-04-15T08:44:16;96387.94;;;11.98;56.48
4814;BME280;15375;48.540;9.268;2023-04-15T08:46:42;96395.50;;;12.25;58.86
4814;BME280;15375;48.540;9.268;2023-04-15T08:49:10;96397.44;;;12.73;59.04
4814;BME280;15375;48.540;9.268;2023-04-15T08:51:38;96373.34;;;12.32;56.69
4814;BME280;15375;48.540;9.268;2023-04-15T08:54:04;96384.03;;;12.48;55.31
4814;BME280;15375;48.540;9.268;2023-04-15T08:56:30;96362.19;;;12.17;55.84
4814;BME280;15375;48.540;9.268;2023-04-15T08:58:59;96370.88;;;11.63;57.49
4814;BME280;15375;48.540;9.268;2023-04-15T09:01:25;96368.91;;;11.64;58.43
4814;BME280;15375;48.540;9.268;2023-04-15T09:03:51;96380.63;;;11.64;58.22
4814;BME280;15375;48.540;9.268;2023-04-15T09:06:20;96380.88;;;11.57;58.75
4814;BME280;15375;48.540;9.268;2023-04-15T09:08:45;96353.69;;;12.15;55.81
4814;BME280;15375;48.540;9.268;2023-04-15T09:11:10;96369.81;;;13.16;54.47
4814;BME280;15375;48.540;9.268;2023-04-15T09:13:36;96376.13;;;13.68;54.57
4814;BME280;15375;48.540;9.268;2023-04-15T09:16:04;96373.56;;;13.55;52.65
4814;BME280;15375;48.540;9.268;2023-04-15T09:18:32;96369.81;;;13.25;53.80
4814;BME280;15375;48.540;9.268;2023-04-15T09:21:19;96386.34;;;13.58;53.81
4814;BME280;15375;48.540;9.268;2023-04-15T09:23:57;96364.72;;;14.11;52.72
4814;BME280;15375;48.540;9.268;2023-04-15T09:26:33;96391.69;;;14.45;51.50
4814;BME280;15375;48.540;9.268;2023-04-15T09:29:16;96375.09;;;14.73;52.09
4814;BME280;15375;48.540;9.268;2023-04-15T09:31:43;96383.38;;;15.25;50.53
4814;BME280;15375;48.540;9.268;2023-04-15T09:34:08;96374.34;;;15.63;50.78
4814;BME280;15375;48.540;9.268;2023-04-15T09:39:11;96391.22;;;16.00;47.34
4814;BME280;15375;48.540;9.268;2023-04-15T09:41:37;96391.41;;;15.96;45.75
4814;BME280;15375;48.540;9.268;2023-04-15T09:44:03;96391.78;;;15.89;45.39
4814;BME280;15375;48.540;9.268;2023-04-15T09:46:44;96390.84;;;15.78;47.57
4814;BME280;15375;48.540;9.268;2023-04-15T09:49:11;96396.31;;;16.07;47.33
4814;BME280;15375;48.540;9.268;2023-04-15T09:51:37;96398.25;;;15.72;46.93
4814;BME280;15375;48.540;9.268;2023-04-15T09:54:03;96384.88;;;15.79;41.76
4814;BME280;15375;48.540;9.268;2023-04-15T09:56:38;96391.97;;;16.01;43.17
4814;BME280;15375;48.540;9.268;2023-04-15T09:59:07;96401.66;;;15.81;44.75
4814;BME280;15375;48.540;9.268;2023-04-15T10:01:33;96395.22;;;15.70;45.33
4814;BME280;15375;48.540;9.268;2023-04-15T10:04:01;96377.28;;;15.45;44.71
4814;BME280;15375;48.540;9.268;2023-04-15T10:06:28;96392.72;;;15.57;46.11
4814;BME280;15375;48.540;9.268;2023-04-15T10:08:54;96373.88;;;15.12;43.93
4814;BME280;15375;48.540;9.268;2023-04-15T10:11:21;96352.25;;;15.43;43.07
4814;BME280;15375;48.540;9.268;2023-04-15T10:13:48;96383.56;;;14.60;46.16
4814;BME280;15375;48.540;9.268;2023-04-15T10:16:15;96383.53;;;15.07;45.48
4814;BME280;15375;48.540;9.268;2023-04-15T10:18:45;96389.63;;;15.26;44.76
4814;BME280;15375;48.540;9.268;2023-04-15T10:21:12;96377.41;;;15.27;44.33
4814;BME280;15375;48.540;9.268;2023-04-15T10:23:46;96360.88;;;14.98;46.31
4814;BME280;15375;48.540;9.268;2023-04-15T10:26:12;96399.13;;;14.54;46.52
4814;BME280;15375;48.540;9.268;2023-04-15T10:28:39;96380.94;;;14.33;47.98
4814;BME280;15375;48.540;9.268;2023-04-15T10:31:06;96359.31;;;14.35;46.97
4814;BME280;15375;48.540;9.268;2023-04-15T10:33:35;96375.19;;;14.54;46.16
4814;BME280;15375;48.540;9.268;2023-04-15T10:36:03;96397.13;;;14.22;47.60
4814;BME280;15375;48.540;9.268;2023-04-15T10:41:20;96408.53;;;14.29;48.49
4814;BME280;15375;48.540;9.268;2023-04-15T10:46:22;96388.28;;;13.76;47.32
4814;BME280;15375;48.540;9.268;2023-04-15T10:48:49;96390.75;;;13.65;48.80
4814;BME280;15375;48.540;9.268;2023-04-15T10:51:15;96395.97;;;13.26;49.87
4814;BME280;15375;48.540;9.268;2023-04-15T10:53:41;96415.69;;;12.94;52.56
4814;BME280;15375;48.540;9.268;2023-04-15T10:56:07;96424.97;;;12.88;53.47
4814;BME280;15375;48.540;9.268;2023-04-15T10:58:41;96435.19;;;12.96;53.93
4814;BME280;15375;48.540;9.268;2023-04-15T11:01:07;96423.66;;;13.19;53.37
4814;BME280;15375;48.540;9.268;2023-04-15T11:03:37;96429.91;;;13.29;54.47
4814;BME280;15375;48.540;9.268;2023-04-15T11:06:04;96410.69;;;13.47;54.23
4814;BME280;15375;48.540;9.268;2023-04-15T11:08:58;96445.56;;;13.37;53.64
4814;BME280;15375;48.540;9.268;2023-04-15T11:12:04;96442.47;;;12.99;55.04
4814;BME280;15375;48.540;9.268;2023-04-15T11:14:32;96426.38;;;13.10;53.01
4814;BME280;15375;48.540;9.268;2023-04-15T11:16:58;96430.66;;;13.29;51.48
4814;BME280;15375;48.540;9.268;2023-04-15T11:19:23;96430.81;;;13.35;50.52
4814;BME280;15375;48.540;9.268;2023-04-15T11:21:48;96424.72;;;13.13;51.51
4814;BME280;15375;48.540;9.268;2023-04-15T11:24:24;96433.34;;;13.02;54.41
4814;BME280;15375;48.540;9.268;2023-04-15T11:27:00;96428.81;;;13.44;50.64
4814;BME280;15375;48.540;9.268;2023-04-15T11:29:32;96412.03;;;13.79;49.80
4814;BME280;15375;48.540;9.268;2023-04-15T11:32:09;96421.50;;;14.20;49.61
4814;BME280;15375;48.540;9.268;2023-04-15T11:34:34;96417.06;;;14.31;48.21
4814;BME280;15375;48.540;9.268;2023-04-15T11:37:03;96425.78;;;14.86;47.70
4814;BME280;15375;48.540;9.268;2023-04-15T11:39:29;96427.16;;;14.82;46.30
4814;BME280;15375;48.540;9.268;2023-04-15T11:41:55;96412.16;;;14.92;43.20
4814;BME280;15375;48.540;9.268;2023-04-15T11:44:20;96406.28;;;15.22;42.33
4814;BME280;15375;48.540;9.268;2023-04-15T11:46:46;96426.13;;;15.79;43.09
4814;BME280;15375;48.540;9.268;2023-04-15T11:49:11;96420.41;;;16.12;43.50
4814;BME280;15375;48.540;9.268;2023-04-15T11:51:50;96422.00;;;16.33;43.14
4814;BME280;15375;48.540;9.268;2023-04-15T11:54:18;96421.63;;;16.11;43.83
4814;BME280;15375;48.540;9.268;2023-04-15T11:56:49;96404.50;;;15.87;42.85
4814;BME280;15375;48.540;9.268;2023-04-15T11:59:15;96398.88;;;15.14;39.57
4814;BME280;15375;48.540;9.268;2023-04-15T12:01:40;96420.56;;;14.64;42.67
4814;BME280;15375;48.540;9.268;2023-04-15T12:04:15;96451.94;;;14.73;45.23
4814;BME280;15375;48.540;9.268;2023-04-15T12:06:46;96452.94;;;14.51;46.40
4814;BME280;15375;48.540;9.268;2023-04-15T12:09:12;96444.13;;;13.96;47.67
4814;BME280;15375;48.540;9.268;2023-04-15T12:11:42;96479.94;;;13.84;49.08
4814;BME280;15375;48.540;9.268;2023-04-15T12:16:53;96482.22;;;13.76;49.57
4814;BME280;15375;48.540;9.268;2023-04-15T12:19:26;96479.91;;;14.02;49.38
4814;BME280;15375;48.540;9.268;2023-04-15T12:22:00;96477.56;;;14.19;47.57
4814;BME280;15375;48.540;9.268;2023-04-15T12:24:25;96480.28;;;14.37;49.77
4814;BME280;15375;48.540;9.268;2023-04-15T12:27:01;96466.50;;;14.88;46.44
4814;BME280;15375;48.540;9.268;2023-04-15T12:29:30;96477.41;;;15.44;47.11
4814;BME280;15375;48.540;9.268;2023-04-15T12:32:05;96475.69;;;15.70;46.98
4814;BME280;15375;48.540;9.268;2023-04-15T12:34:37;96471.63;;;15.95;45.81
4814;BME280;15375;48.540;9.268;2023-04-15T12:37:05;96475.00;;;15.37;45.93
4814;BME280;15375;48.540;9.268;2023-04-15T12:39:34;96479.69;;;14.98;47.62
4814;BME280;15375;48.540;9.268;2023-04-15T12:42:00;96499.03;;;14.71;49.07
4814;BME280;15375;48.540;9.268;2023-04-15T12:44:26;96514.03;;;13.83;49.59
4814;BME280;15375;48.540;9.268;2023-04-15T12:46:52;96515.59;;;13.57;51.46
4814;BME280;15375;48.540;9.268;2023-04-15T12:49:18;96501.25;;;13.34;51.43
4814;BME280;15375;48.540;9.268;2023-04-15T12:51:46;96499.50;;;13.01;53.44
4814;BME280;15375;48.540;9.268;2023-04-15T12:54:11;96468.78;;;12.48;54.67
4814;BME280;15375;48.540;9.268;2023-04-15T12:56:37;96515.69;;;12.77;55.32
4814;BME280;15375;48.540;9.268;2023-04-15T12:59:02;96528.06;;;13.00;56.35
4814;BME280;15375;48.540;9.268;2023-04-15T13:01:28;96520.50;;;13.04;55.37
4814;BME280;15375;48.540;9.268;2023-04-15T13:03:53;96522.09;;;13.23;53.31
4814;BME280;15375;48.540;9.268;2023-04-15T13:06:19;96499.78;;;12.94;51.88
4814;BME280;15375;48.540;9.268;2023-04-15T13:08:45;96515.16;;;12.91;50.73
4814;BME280;15375;48.540;9.268;2023-04-15T13:11:11;96518.75;;;12.79;53.09
4814;BME280;15375;48.540;9.268;2023-04-15T13:13:36;96537.47;;;12.50;55.89
4814;BME280;15375;48.540;9.268;2023-04-15T13:16:01;96549.97;;;12.29;59.83
4814;BME280;15375;48.540;9.268;2023-04-15T13:18:27;96586.88;;;12.03;63.00
4814;BME280;15375;48.540;9.268;2023-04-15T13:20:53;96598.91;;;11.71;64.70